sensor_id;sensor_type;location;lat;lon;timestamp;P1;durP1;ratioP1;P2;durP2;ratioP2
52208;SDS011;38507;53.132;6.394;2023-12-20T00:02:19;22.55;;;2.30;;
52208;SDS011;38507;53.132;6.394;2023-12-20T00:04:45;23.15;;;3.17;;
52208;SDS011;38507;53.132;6.394;2023-12-20T00:07:10;20.40;;;2.22;;
52208;SDS011;38507;53.132;6.394;2023-12-20T00:09:36;15.20;;;1.85;;
52208;SDS011;38507;53.132;6.394;2023-12-20T00:12:01;28.70;;;2.22;;
52208;SDS011;38507;53.132;6.394;2023-12-20T00:14:27;17.73;;;1.90;;
52208;SDS011;38507;53.132;6.394;2023-12-20T00:16:53;20.45;;;2.35;;
52208;SDS011;38507;53.132;6.394;2023-12-20T00:19:18;19.58;;;2.70;;
52208;SDS011;38507;53.132;6.394;2023-12-20T00:21:45;18.45;;;2.30;;
52208;SDS011;38507;53.132;6.394;2023-12-20T00:24:10;20.05;;;2.55;;
52208;SDS011;38507;53.132;6.394;2023-12-20T00:26:36;19.30;;;2.00;;
52208;SDS011;38507;53.132;6.394;2023-12-20T00:29:02;12.75;;;1.83;;
52208;SDS011;38507;53.132;6.394;2023-12-20T00:31:27;22.17;;;2.60;;
52208;SDS011;38507;53.132;6.394;2023-12-20T00:33:53;19.35;;;2.20;;
52208;SDS011;38507;53.132;6.394;2023-12-20T00:36:19;17.33;;;2.63;;
52208;SDS011;38507;53.132;6.394;2023-12-20T00:38:45;22.13;;;2.35;;
52208;SDS011;38507;53.132;6.394;2023-12-20T00:41:10;16.80;;;2.58;;
52208;SDS011;38507;53.132;6.394;2023-12-20T00:43:36;12.98;;;1.92;;
52208;SDS011;38507;53.132;6.394;2023-12-20T00:46:02;13.88;;;2.78;;
52208;SDS011;38507;53.132;6.394;2023-12-20T00:48:27;16.48;;;2.17;;
52208;SDS011;38507;53.132;6.394;2023-12-20T00:50:55;19.02;;;2.17;;
52208;SDS011;38507;53.132;6.394;2023-12-20T00:53:21;15.52;;;2.42;;
52208;SDS011;38507;53.132;6.394;2023-12-20T00:55:46;15.75;;;2.85;;
52208;SDS011;38507;53.132;6.394;2023-12-20T00:58:12;21.02;;;2.70;;
52208;SDS011;38507;53.132;6.394;2023-12-20T01:00:40;19.80;;;2.72;;
52208;SDS011;38507;53.132;6.394;2023-12-20T01:03:07;21.90;;;2.33;;
52208;SDS011;38507;53.132;6.394;2023-12-20T01:05:32;23.58;;;2.90;;
52208;SDS011;38507;53.132;6.394;2023-12-20T01:07:58;23.88;;;2.80;;
52208;SDS011;38507;53.132;6.394;2023-12-20T01:10:24;23.08;;;2.50;;
52208;SDS011;38507;53.132;6.394;2023-12-20T01:12:53;26.60;;;2.70;;
52208;SDS011;38507;53.132;6.394;2023-12-20T01:15:18;20.67;;;2.50;;
52208;SDS011;38507;53.132;6.394;2023-12-20T01:17:44;21.80;;;2.50;;
52208;SDS011;38507;53.132;6.394;2023-12-20T01:20:10;19.27;;;2.80;;
52208;SDS011;38507;53.132;6.394;2023-12-20T01:22:36;20.95;;;2.97;;
52208;SDS011;38507;53.132;6.394;2023-12-20T01:25:01;19.67;;;3.33;;
52208;SDS011;38507;53.132;6.394;2023-12-20T01:27:27;21.48;;;3.15;;
52208;SDS011;38507;53.132;6.394;2023-12-20T01:29:53;21.00;;;3.22;;
52208;SDS011;38507;53.132;6.394;2023-12-20T01:32:19;20.58;;;3.22;;
52208;SDS011;38507;53.132;6.394;2023-12-20T01:34:45;19.02;;;2.60;;
52208;SDS011;38507;53.132;6.394;2023-12-20T01:37:10;23.38;;;3.40;;
52208;SDS011;38507;53.132;6.394;2023-12-20T01:39:36;11.90;;;1.63;;
52208;SDS011;38507;53.132;6.394;2023-12-20T01:42:02;11.65;;;1.63;;
52208;SDS011;38507;53.132;6.394;2023-12-20T01:44:27;15.63;;;2.40;;
52208;SDS011;38507;53.132;6.394;2023-12-20T01:46:53;14.23;;;1.90;;
52208;SDS011;38507;53.132;6.394;2023-12-20T01:49:19;15.00;;;2.58;;
52208;SDS011;38507;53.132;6.394;2023-12-20T01:51:45;12.63;;;1.77;;
52208;SDS011;38507;53.132;6.394;2023-12-20T01:54:11;30.45;;;3.70;;
52208;SDS011;38507;53.132;6.394;2023-12-20T01:56:38;25.80;;;3.47;;
52208;SDS011;38507;53.132;6.394;2023-12-20T01:59:04;26.33;;;3.55;;
52208;SDS011;38507;53.132;6.394;2023-12-20T02:01:32;31.77;;;4.55;;
52208;SDS011;38507;53.132;6.394;2023-12-20T02:03:58;22.48;;;3.30;;
52208;SDS011;38507;53.132;6.394;2023-12-20T02:06:24;27.95;;;3.65;;
52208;SDS011;38507;53.132;6.394;2023-12-20T02:08:55;19.60;;;3.72;;
52208;SDS011;38507;53.132;6.394;2023-12-20T02:11:21;22.92;;;3.03;;
52208;SDS011;38507;53.132;6.394;2023-12-20T02:13:47;23.10;;;3.72;;
52208;SDS011;38507;53.132;6.394;2023-12-20T02:16:13;28.20;;;4.03;;
52208;SDS011;38507;53.132;6.394;2023-12-20T02:18:38;24.60;;;3.58;;
52208;SDS011;38507;53.132;6.394;2023-12-20T02:21:05;24.08;;;3.78;;
52208;SDS011;38507;53.132;6.394;2023-12-20T02:23:31;29.83;;;4.18;;
52208;SDS011;38507;53.132;6.394;2023-12-20T02:25:56;26.38;;;4.03;;
52208;SDS011;38507;53.132;6.394;2023-12-20T02:28:22;26.73;;;3.60;;
52208;SDS011;38507;53.132;6.394;2023-12-20T02:30:48;27.45;;;3.20;;
52208;SDS011;38507;53.132;6.394;2023-12-20T02:33:14;28.15;;;4.88;;
52208;SDS011;38507;53.132;6.394;2023-12-20T02:35:40;31.15;;;3.47;;
52208;SDS011;38507;53.132;6.394;2023-12-20T02:38:06;32.83;;;3.58;;
52208;SDS011;38507;53.132;6.394;2023-12-20T02:40:32;28.73;;;3.88;;
52208;SDS011;38507;53.132;6.394;2023-12-20T02:42:57;36.85;;;4.68;;
52208;SDS011;38507;53.132;6.394;2023-12-20T02:45:23;36.17;;;3.88;;
52208;SDS011;38507;53.132;6.394;2023-12-20T02:47:49;31.15;;;3.45;;
52208;SDS011;38507;53.132;6.394;2023-12-20T02:50:14;30.95;;;3.47;;
52208;SDS011;38507;53.132;6.394;2023-12-20T02:52:40;28.02;;;3.75;;
52208;SDS011;38507;53.132;6.394;2023-12-20T02:55:06;27.83;;;4.13;;
52208;SDS011;38507;53.132;6.394;2023-12-20T02:57:31;28.75;;;3.80;;
52208;SDS011;38507;53.132;6.394;2023-12-20T02:59:58;29.20;;;4.63;;
52208;SDS011;38507;53.132;6.394;2023-12-20T03:02:24;32.65;;;4.68;;
52208;SDS011;38507;53.132;6.394;2023-12-20T03:04:49;35.75;;;4.55;;
52208;SDS011;38507;53.132;6.394;2023-12-20T03:07:15;29.63;;;4.82;;
52208;SDS011;38507;53.132;6.394;2023-12-20T03:09:41;32.25;;;5.63;;
52208;SDS011;38507;53.132;6.394;2023-12-20T03:12:06;28.00;;;3.42;;
52208;SDS011;38507;53.132;6.394;2023-12-20T03:14:32;29.90;;;4.68;;
52208;SDS011;38507;53.132;6.394;2023-12-20T03:16:57;34.95;;;5.45;;
52208;SDS011;38507;53.132;6.394;2023-12-20T03:19:23;28.52;;;4.78;;
52208;SDS011;38507;53.132;6.394;2023-12-20T03:21:49;26.42;;;3.65;;
52208;SDS011;38507;53.132;6.394;2023-12-20T03:24:14;28.33;;;5.53;;
52208;SDS011;38507;53.132;6.394;2023-12-20T03:26:40;33.63;;;5.05;;
52208;SDS011;38507;53.132;6.394;2023-12-20T03:29:05;35.17;;;4.90;;
52208;SDS011;38507;53.132;6.394;2023-12-20T03:31:31;25.45;;;3.40;;
52208;SDS011;38507;53.132;6.394;2023-12-20T03:33:57;31.73;;;4.32;;
52208;SDS011;38507;53.132;6.394;2023-12-20T03:36:22;32.63;;;4.05;;
52208;SDS011;38507;53.132;6.394;2023-12-20T03:38:48;44.55;;;4.53;;
52208;SDS011;38507;53.132;6.394;2023-12-20T03:41:13;28.42;;;4.35;;
52208;SDS011;38507;53.132;6.394;2023-12-20T03:43:39;32.95;;;4.38;;
52208;SDS011;38507;53.132;6.394;2023-12-20T03:46:05;31.17;;;4.45;;
52208;SDS011;38507;53.132;6.394;2023-12-20T03:48:32;35.28;;;3.90;;
52208;SDS011;38507;53.132;6.394;2023-12-20T03:50:58;28.45;;;4.07;;
52208;SDS011;38507;53.132;6.394;2023-12-20T03:53:23;32.45;;;4.20;;
52208;SDS011;38507;53.132;6.394;2023-12-20T03:55:49;41.08;;;3.83;;
52208;SDS011;38507;53.132;6.394;2023-12-20T03:58:15;40.63;;;5.57;;
52208;SDS011;38507;53.132;6.394;2023-12-20T04:00:40;34.08;;;4.57;;
52208;SDS011;38507;53.132;6.394;2023-12-20T04:03:06;34.95;;;5.20;;
52208;SDS011;38507;53.132;6.394;2023-12-20T04:05:32;30.50;;;3.95;;
52208;SDS011;38507;53.132;6.394;2023-12-20T04:07:59;25.17;;;4.15;;
52208;SDS011;38507;53.132;6.394;2023-12-20T04:10:26;34.15;;;4.47;;
52208;SDS011;38507;53.132;6.394;2023-12-20T04:12:51;39.33;;;4.63;;
52208;SDS011;38507;53.132;6.394;2023-12-20T04:15:17;31.15;;;4.80;;
52208;SDS011;38507;53.132;6.394;2023-12-20T04:17:43;34.53;;;4.72;;
52208;SDS011;38507;53.132;6.394;2023-12-20T04:20:08;34.88;;;4.50;;
52208;SDS011;38507;53.132;6.394;2023-12-20T04:22:34;31.00;;;4.13;;
52208;SDS011;38507;53.132;6.394;2023-12-20T04:25:00;28.67;;;4.57;;
52208;SDS011;38507;53.132;6.394;2023-12-20T04:27:25;23.83;;;4.20;;
52208;SDS011;38507;53.132;6.394;2023-12-20T04:29:51;25.95;;;4.15;;
52208;SDS011;38507;53.132;6.394;2023-12-20T04:32:17;30.70;;;4.53;;
52208;SDS011;38507;53.132;6.394;2023-12-20T04:34:42;30.58;;;4.95;;
52208;SDS011;38507;53.132;6.394;2023-12-20T04:37:08;23.75;;;4.90;;
52208;SDS011;38507;53.132;6.394;2023-12-20T04:39:33;22.90;;;3.22;;
52208;SDS011;38507;53.132;6.394;2023-12-20T04:41:59;33.58;;;4.38;;
52208;SDS011;38507;53.132;6.394;2023-12-20T04:44:24;25.67;;;3.92;;
52208;SDS011;38507;53.132;6.394;2023-12-20T04:46:51;37.38;;;4.47;;
52208;SDS011;38507;53.132;6.394;2023-12-20T04:49:17;27.27;;;3.83;;
52208;SDS011;38507;53.132;6.394;2023-12-20T04:51:42;29.30;;;3.30;;
52208;SDS011;38507;53.132;6.394;2023-12-20T04:54:08;30.75;;;4.75;;
52208;SDS011;38507;53.132;6.394;2023-12-20T04:56:35;37.95;;;4.50;;
52208;SDS011;38507;53.132;6.394;2023-12-20T04:59:00;30.80;;;3.50;;
52208;SDS011;38507;53.132;6.394;2023-12-20T05:01:26;30.83;;;3.85;;
52208;SDS011;38507;53.132;6.394;2023-12-20T05:03:52;27.88;;;3.92;;
52208;SDS011;38507;53.132;6.394;2023-12-20T05:06:18;31.48;;;3.85;;
52208;SDS011;38507;53.132;6.394;2023-12-20T05:08:43;19.73;;;3.17;;
52208;SDS011;38507;53.132;6.394;2023-12-20T05:11:09;23.48;;;3.97;;
52208;SDS011;38507;53.132;6.394;2023-12-20T05:13:35;23.95;;;4.70;;
52208;SDS011;38507;53.132;6.394;2023-12-20T05:16:00;33.58;;;4.47;;
52208;SDS011;38507;53.132;6.394;2023-12-20T05:18:26;21.88;;;3.47;;
52208;SDS011;38507;53.132;6.394;2023-12-20T05:20:52;31.90;;;4.38;;
52208;SDS011;38507;53.132;6.394;2023-12-20T05:23:18;33.53;;;5.57;;
52208;SDS011;38507;53.132;6.394;2023-12-20T05:25:43;28.92;;;3.58;;
52208;SDS011;38507;53.132;6.394;2023-12-20T05:28:09;29.77;;;4.60;;
52208;SDS011;38507;53.132;6.394;2023-12-20T05:30:35;32.65;;;4.13;;
52208;SDS011;38507;53.132;6.394;2023-12-20T05:33:00;27.90;;;4.03;;
52208;SDS011;38507;53.132;6.394;2023-12-20T05:35:26;29.70;;;4.10;;
52208;SDS011;38507;53.132;6.394;2023-12-20T05:37:52;30.20;;;4.88;;
52208;SDS011;38507;53.132;6.394;2023-12-20T05:40:17;33.88;;;4.10;;
52208;SDS011;38507;53.132;6.394;2023-12-20T05:42:43;21.83;;;3.90;;
52208;SDS011;38507;53.132;6.394;2023-12-20T05:45:09;23.85;;;4.50;;
52208;SDS011;38507;53.132;6.394;2023-12-20T05:47:35;28.27;;;4.57;;
52208;SDS011;38507;53.132;6.394;2023-12-20T05:50:00;33.97;;;5.07;;
52208;SDS011;38507;53.132;6.394;2023-12-20T05:52:26;30.27;;;3.70;;
52208;SDS011;38507;53.132;6.394;2023-12-20T05:54:51;34.95;;;4.95;;
52208;SDS011;38507;53.132;6.394;2023-12-20T05:57:17;39.42;;;5.95;;
52208;SDS011;38507;53.132;6.394;2023-12-20T05:59:43;42.55;;;5.43;;
52208;SDS011;38507;53.132;6.394;2023-12-20T06:02:09;28.30;;;4.25;;
52208;SDS011;38507;53.132;6.394;2023-12-20T06:04:34;31.27;;;5.28;;
52208;SDS011;38507;53.132;6.394;2023-12-20T06:07:00;29.08;;;4.65;;
52208;SDS011;38507;53.132;6.394;2023-12-20T06:09:29;30.08;;;4.13;;
52208;SDS011;38507;53.132;6.394;2023-12-20T06:11:54;36.70;;;5.40;;
52208;SDS011;38507;53.132;6.394;2023-12-20T06:14:20;41.33;;;5.47;;
52208;SDS011;38507;53.132;6.394;2023-12-20T06:16:46;34.10;;;4.32;;
52208;SDS011;38507;53.132;6.394;2023-12-20T06:19:12;32.97;;;4.05;;
52208;SDS011;38507;53.132;6.394;2023-12-20T06:21:37;35.28;;;4.95;;
52208;SDS011;38507;53.132;6.394;2023-12-20T06:24:03;22.98;;;3.67;;
52208;SDS011;38507;53.132;6.394;2023-12-20T06:26:29;30.30;;;4.78;;
52208;SDS011;38507;53.132;6.394;2023-12-20T06:28:54;29.90;;;4.30;;
52208;SDS011;38507;53.132;6.394;2023-12-20T06:31:20;35.50;;;4.82;;
52208;SDS011;38507;53.132;6.394;2023-12-20T06:33:46;31.60;;;4.43;;
52208;SDS011;38507;53.132;6.394;2023-12-20T06:36:12;25.52;;;3.72;;
52208;SDS011;38507;53.132;6.394;2023-12-20T06:38:38;27.52;;;3.78;;
52208;SDS011;38507;53.132;6.394;2023-12-20T06:41:04;34.50;;;5.35;;
52208;SDS011;38507;53.132;6.394;2023-12-20T06:43:30;32.90;;;4.35;;
52208;SDS011;38507;53.132;6.394;2023-12-20T06:45:56;31.38;;;4.70;;
52208;SDS011;38507;53.132;6.394;2023-12-20T06:48:22;32.40;;;4.55;;
52208;SDS011;38507;53.132;6.394;2023-12-20T06:50:47;26.35;;;3.88;;
52208;SDS011;38507;53.132;6.394;2023-12-20T06:53:13;31.27;;;4.47;;
52208;SDS011;38507;53.132;6.394;2023-12-20T06:55:38;26.15;;;4.32;;
52208;SDS011;38507;53.132;6.394;2023-12-20T06:58:04;34.90;;;4.72;;
52208;SDS011;38507;53.132;6.394;2023-12-20T07:00:30;31.92;;;4.82;;
52208;SDS011;38507;53.132;6.394;2023-12-20T07:02:57;37.00;;;4.90;;
52208;SDS011;38507;53.132;6.394;2023-12-20T07:05:23;33.42;;;4.57;;
52208;SDS011;38507;53.132;6.394;2023-12-20T07:07:49;42.10;;;5.43;;
52208;SDS011;38507;53.132;6.394;2023-12-20T07:10:14;26.40;;;4.55;;
52208;SDS011;38507;53.132;6.394;2023-12-20T07:12:40;33.97;;;5.20;;
52208;SDS011;38507;53.132;6.394;2023-12-20T07:15:06;31.13;;;4.05;;
52208;SDS011;38507;53.132;6.394;2023-12-20T07:17:32;37.33;;;4.47;;
52208;SDS011;38507;53.132;6.394;2023-12-20T07:19:58;36.72;;;5.05;;
52208;SDS011;38507;53.132;6.394;2023-12-20T07:22:28;29.98;;;4.50;;
52208;SDS011;38507;53.132;6.394;2023-12-20T07:24:57;27.77;;;4.43;;
52208;SDS011;38507;53.132;6.394;2023-12-20T07:27:23;24.55;;;3.92;;
52208;SDS011;38507;53.132;6.394;2023-12-20T07:29:49;28.20;;;4.25;;
52208;SDS011;38507;53.132;6.394;2023-12-20T07:32:15;34.33;;;4.85;;
52208;SDS011;38507;53.132;6.394;2023-12-20T07:34:40;28.08;;;4.30;;
52208;SDS011;38507;53.132;6.394;2023-12-20T07:37:06;29.92;;;4.75;;
52208;SDS011;38507;53.132;6.394;2023-12-20T07:39:32;32.25;;;4.97;;
52208;SDS011;38507;53.132;6.394;2023-12-20T07:41:57;40.67;;;5.18;;
52208;SDS011;38507;53.132;6.394;2023-12-20T07:44:23;32.97;;;4.00;;
52208;SDS011;38507;53.132;6.394;2023-12-20T07:46:48;32.08;;;5.88;;
52208;SDS011;38507;53.132;6.394;2023-12-20T07:49:15;32.45;;;4.55;;
52208;SDS011;38507;53.132;6.394;2023-12-20T07:51:40;37.13;;;5.15;;
52208;SDS011;38507;53.132;6.394;2023-12-20T07:54:06;22.48;;;4.20;;
52208;SDS011;38507;53.132;6.394;2023-12-20T07:56:33;33.53;;;4.47;;
52208;SDS011;38507;53.132;6.394;2023-12-20T07:58:58;31.95;;;4.03;;
52208;SDS011;38507;53.132;6.394;2023-12-20T08:01:24;37.88;;;4.70;;
52208;SDS011;38507;53.132;6.394;2023-12-20T08:03:50;35.67;;;6.70;;
52208;SDS011;38507;53.132;6.394;2023-12-20T08:06:15;29.02;;;4.38;;
52208;SDS011;38507;53.132;6.394;2023-12-20T08:08:42;30.15;;;4.32;;
52208;SDS011;38507;53.132;6.394;2023-12-20T08:11:08;30.08;;;4.47;;
52208;SDS011;38507;53.132;6.394;2023-12-20T08:13:33;35.28;;;4.97;;
52208;SDS011;38507;53.132;6.394;2023-12-20T08:15:59;26.45;;;3.75;;
52208;SDS011;38507;53.132;6.394;2023-12-20T08:18:27;25.63;;;4.30;;
52208;SDS011;38507;53.132;6.394;2023-12-20T08:20:53;27.48;;;4.75;;
52208;SDS011;38507;53.132;6.394;2023-12-20T08:23:19;30.23;;;5.07;;
52208;SDS011;38507;53.132;6.394;2023-12-20T08:25:46;26.92;;;4.00;;
52208;SDS011;38507;53.132;6.394;2023-12-20T08:28:11;25.65;;;4.10;;
52208;SDS011;38507;53.132;6.394;2023-12-20T08:30:37;20.00;;;3.60;;
52208;SDS011;38507;53.132;6.394;2023-12-20T08:33:03;23.42;;;3.38;;
52208;SDS011;38507;53.132;6.394;2023-12-20T08:35:29;18.63;;;3.25;;
52208;SDS011;38507;53.132;6.394;2023-12-20T08:37:55;22.30;;;3.13;;
52208;SDS011;38507;53.132;6.394;2023-12-20T08:40:21;20.80;;;4.30;;
52208;SDS011;38507;53.132;6.394;2023-12-20T08:42:47;24.65;;;3.40;;
52208;SDS011;38507;53.132;6.394;2023-12-20T08:45:12;16.00;;;2.70;;
52208;SDS011;38507;53.132;6.394;2023-12-20T08:47:38;17.40;;;2.85;;
52208;SDS011;38507;53.132;6.394;2023-12-20T08:50:03;21.83;;;3.00;;
52208;SDS011;38507;53.132;6.394;2023-12-20T08:52:29;23.95;;;3.38;;
52208;SDS011;38507;53.132;6.394;2023-12-20T08:54:55;25.35;;;4.88;;
52208;SDS011;38507;53.132;6.394;2023-12-20T08:57:21;24.33;;;4.50;;
52208;SDS011;38507;53.132;6.394;2023-12-20T08:59:49;23.42;;;3.83;;
52208;SDS011;38507;53.132;6.394;2023-12-20T09:02:15;19.88;;;3.35;;
52208;SDS011;38507;53.132;6.394;2023-12-20T09:04:41;22.55;;;4.57;;
52208;SDS011;38507;53.132;6.394;2023-12-20T09:07:26;17.25;;;2.63;;
52208;SDS011;38507;53.132;6.394;2023-12-20T09:09:52;18.98;;;2.05;;
52208;SDS011;38507;53.132;6.394;2023-12-20T09:12:18;12.18;;;1.80;;
52208;SDS011;38507;53.132;6.394;2023-12-20T09:14:48;10.43;;;1.38;;
52208;SDS011;38507;53.132;6.394;2023-12-20T09:17:15;15.93;;;1.83;;
52208;SDS011;38507;53.132;6.394;2023-12-20T09:19:41;9.77;;;1.52;;
52208;SDS011;38507;53.132;6.394;2023-12-20T09:22:09;7.22;;;1.40;;
52208;SDS011;38507;53.132;6.394;2023-12-20T09:24:34;12.60;;;1.27;;
52208;SDS011;38507;53.132;6.394;2023-12-20T09:27:00;9.65;;;1.20;;
52208;SDS011;38507;53.132;6.394;2023-12-20T09:29:26;11.32;;;1.33;;
52208;SDS011;38507;53.132;6.394;2023-12-20T09:31:51;8.88;;;0.88;;
52208;SDS011;38507;53.132;6.394;2023-12-20T09:34:17;6.18;;;0.80;;
52208;SDS011;38507;53.132;6.394;2023-12-20T09:36:43;7.60;;;1.40;;
52208;SDS011;38507;53.132;6.394;2023-12-20T09:39:15;7.72;;;0.90;;
52208;SDS011;38507;53.132;6.394;2023-12-20T09:41:46;8.38;;;1.40;;
52208;SDS011;38507;53.132;6.394;2023-12-20T09:44:35;10.40;;;0.93;;
52208;SDS011;38507;53.132;6.394;2023-12-20T09:47:04;8.90;;;1.38;;
52208;SDS011;38507;53.132;6.394;2023-12-20T09:49:30;8.70;;;1.10;;
52208;SDS011;38507;53.132;6.394;2023-12-20T09:51:57;8.40;;;1.02;;
52208;SDS011;38507;53.132;6.394;2023-12-20T09:54:25;10.63;;;1.27;;
52208;SDS011;38507;53.132;6.394;2023-12-20T09:56:51;11.90;;;1.55;;
52208;SDS011;38507;53.132;6.394;2023-12-20T09:59:17;12.38;;;2.17;;
52208;SDS011;38507;53.132;6.394;2023-12-20T10:01:43;11.70;;;1.58;;
52208;SDS011;38507;53.132;6.394;2023-12-20T10:04:09;8.65;;;1.50;;
52208;SDS011;38507;53.132;6.394;2023-12-20T10:06:41;10.73;;;1.45;;
52208;SDS011;38507;53.132;6.394;2023-12-20T10:09:07;13.35;;;1.60;;
52208;SDS011;38507;53.132;6.394;2023-12-20T10:11:35;13.55;;;1.75;;
52208;SDS011;38507;53.132;6.394;2023-12-20T10:14:02;14.68;;;2.58;;
52208;SDS011;38507;53.132;6.394;2023-12-20T10:16:28;12.48;;;1.63;;
52208;SDS011;38507;53.132;6.394;2023-12-20T10:18:54;13.32;;;1.75;;
52208;SDS011;38507;53.132;6.394;2023-12-20T10:21:21;11.82;;;1.60;;
52208;SDS011;38507;53.132;6.394;2023-12-20T10:23:50;17.75;;;1.83;;
52208;SDS011;38507;53.132;6.394;2023-12-20T10:26:23;12.85;;;2.03;;
52208;SDS011;38507;53.132;6.394;2023-12-20T10:28:50;16.95;;;2.42;;
52208;SDS011;38507;53.132;6.394;2023-12-20T10:31:33;17.85;;;2.33;;
52208;SDS011;38507;53.132;6.394;2023-12-20T10:34:00;15.20;;;2.60;;
52208;SDS011;38507;53.132;6.394;2023-12-20T10:36:27;12.95;;;1.70;;
52208;SDS011;38507;53.132;6.394;2023-12-20T10:38:57;18.05;;;2.63;;
52208;SDS011;38507;53.132;6.394;2023-12-20T10:41:30;17.42;;;3.90;;
52208;SDS011;38507;53.132;6.394;2023-12-20T10:43:58;16.15;;;3.22;;
52208;SDS011;38507;53.132;6.394;2023-12-20T10:46:28;20.40;;;3.03;;
52208;SDS011;38507;53.132;6.394;2023-12-20T10:48:55;16.83;;;2.10;;
52208;SDS011;38507;53.132;6.394;2023-12-20T10:51:22;14.85;;;2.70;;
52208;SDS011;38507;53.132;6.394;2023-12-20T10:53:49;16.92;;;3.15;;
52208;SDS011;38507;53.132;6.394;2023-12-20T10:56:16;17.65;;;2.97;;
52208;SDS011;38507;53.132;6.394;2023-12-20T10:58:46;16.08;;;2.10;;
52208;SDS011;38507;53.132;6.394;2023-12-20T11:01:14;9.88;;;2.28;;
52208;SDS011;38507;53.132;6.394;2023-12-20T11:03:49;16.02;;;2.00;;
52208;SDS011;38507;53.132;6.394;2023-12-20T11:08:47;20.67;;;2.40;;
52208;SDS011;38507;53.132;6.394;2023-12-20T11:14:47;14.80;;;2.45;;
52208;SDS011;38507;53.132;6.394;2023-12-20T11:17:16;13.98;;;1.80;;
52208;SDS011;38507;53.132;6.394;2023-12-20T11:22:33;19.77;;;2.40;;
52208;SDS011;38507;53.132;6.394;2023-12-20T11:25:04;11.75;;;2.38;;
52208;SDS011;38507;53.132;6.394;2023-12-20T11:27:33;14.88;;;2.10;;
52208;SDS011;38507;53.132;6.394;2023-12-20T11:29:59;9.18;;;1.80;;
52208;SDS011;38507;53.132;6.394;2023-12-20T11:32:31;15.52;;;2.50;;
52208;SDS011;38507;53.132;6.394;2023-12-20T11:34:59;11.93;;;2.05;;
52208;SDS011;38507;53.132;6.394;2023-12-20T11:37:31;14.38;;;1.85;;
52208;SDS011;38507;53.132;6.394;2023-12-20T11:40:21;16.52;;;2.15;;
52208;SDS011;38507;53.132;6.394;2023-12-20T11:42:48;10.55;;;1.98;;
52208;SDS011;38507;53.132;6.394;2023-12-20T11:45:18;19.27;;;2.50;;
52208;SDS011;38507;53.132;6.394;2023-12-20T11:47:47;15.30;;;2.30;;
52208;SDS011;38507;53.132;6.394;2023-12-20T11:50:15;17.33;;;2.40;;
52208;SDS011;38507;53.132;6.394;2023-12-20T11:52:44;15.95;;;2.00;;
52208;SDS011;38507;53.132;6.394;2023-12-20T11:55:09;16.80;;;2.67;;
52208;SDS011;38507;53.132;6.394;2023-12-20T11:57:35;16.85;;;2.33;;
52208;SDS011;38507;53.132;6.394;2023-12-20T12:00:03;17.98;;;2.22;;
52208;SDS011;38507;53.132;6.394;2023-12-20T12:02:30;19.45;;;2.08;;
52208;SDS011;38507;53.132;6.394;2023-12-20T12:04:56;15.38;;;1.95;;
52208;SDS011;38507;53.132;6.394;2023-12-20T12:07:23;18.25;;;2.40;;
52208;SDS011;38507;53.132;6.394;2023-12-20T12:09:49;18.67;;;2.00;;
52208;SDS011;38507;53.132;6.394;2023-12-20T12:12:15;13.50;;;2.00;;
52208;SDS011;38507;53.132;6.394;2023-12-20T12:14:40;13.57;;;2.47;;
52208;SDS011;38507;53.132;6.394;2023-12-20T12:17:10;14.65;;;2.17;;
52208;SDS011;38507;53.132;6.394;2023-12-20T12:19:36;15.30;;;2.83;;
52208;SDS011;38507;53.132;6.394;2023-12-20T12:22:06;16.98;;;2.15;;
52208;SDS011;38507;53.132;6.394;2023-12-20T12:24:41;21.98;;;2.38;;
52208;SDS011;38507;53.132;6.394;2023-12-20T12:27:11;14.05;;;1.83;;
52208;SDS011;38507;53.132;6.394;2023-12-20T12:29:38;14.45;;;2.10;;
52208;SDS011;38507;53.132;6.394;2023-12-20T12:32:04;16.75;;;2.30;;
52208;SDS011;38507;53.132;6.394;2023-12-20T12:34:34;14.25;;;2.42;;
52208;SDS011;38507;53.132;6.394;2023-12-20T12:37:01;19.10;;;2.67;;
52208;SDS011;38507;53.132;6.394;2023-12-20T12:39:27;15.98;;;2.08;;
52208;SDS011;38507;53.132;6.394;2023-12-20T12:41:54;11.73;;;2.03;;
52208;SDS011;38507;53.132;6.394;2023-12-20T12:44:21;15.77;;;2.45;;
52208;SDS011;38507;53.132;6.394;2023-12-20T12:46:48;18.33;;;2.40;;
52208;SDS011;38507;53.132;6.394;2023-12-20T12:49:18;19.55;;;3.03;;
52208;SDS011;38507;53.132;6.394;2023-12-20T12:51:47;18.55;;;2.38;;
52208;SDS011;38507;53.132;6.394;2023-12-20T12:54:13;19.55;;;3.25;;
52208;SDS011;38507;53.132;6.394;2023-12-20T12:56:41;21.65;;;2.53;;
52208;SDS011;38507;53.132;6.394;2023-12-20T12:59:08;17.08;;;2.90;;
52208;SDS011;38507;53.132;6.394;2023-12-20T13:01:33;17.30;;;2.15;;
52208;SDS011;38507;53.132;6.394;2023-12-20T13:03:59;20.33;;;2.50;;
52208;SDS011;38507;53.132;6.394;2023-12-20T13:06:28;21.17;;;2.63;;
52208;SDS011;38507;53.132;6.394;2023-12-20T13:08:53;17.52;;;2.30;;
52208;SDS011;38507;53.132;6.394;2023-12-20T13:11:20;17.05;;;2.58;;
52208;SDS011;38507;53.132;6.394;2023-12-20T13:13:45;18.05;;;3.05;;
52208;SDS011;38507;53.132;6.394;2023-12-20T13:16:12;15.45;;;2.00;;
52208;SDS011;38507;53.132;6.394;2023-12-20T13:18:38;10.82;;;1.55;;
52208;SDS011;38507;53.132;6.394;2023-12-20T13:21:07;14.13;;;1.67;;
52208;SDS011;38507;53.132;6.394;2023-12-20T13:23:34;12.85;;;2.38;;
52208;SDS011;38507;53.132;6.394;2023-12-20T13:25:59;12.88;;;2.20;;
52208;SDS011;38507;53.132;6.394;2023-12-20T13:28:25;15.52;;;2.10;;
52208;SDS011;38507;53.132;6.394;2023-12-20T13:30:50;10.10;;;1.50;;
52208;SDS011;38507;53.132;6.394;2023-12-20T13:33:16;13.15;;;1.95;;
52208;SDS011;38507;53.132;6.394;2023-12-20T13:35:42;12.35;;;1.65;;
52208;SDS011;38507;53.132;6.394;2023-12-20T13:38:07;13.35;;;1.77;;
52208;SDS011;38507;53.132;6.394;2023-12-20T13:40:33;12.55;;;2.22;;
52208;SDS011;38507;53.132;6.394;2023-12-20T13:42:59;13.20;;;2.05;;
52208;SDS011;38507;53.132;6.394;2023-12-20T13:45:24;12.80;;;1.77;;
52208;SDS011;38507;53.132;6.394;2023-12-20T13:47:50;11.63;;;1.92;;
52208;SDS011;38507;53.132;6.394;2023-12-20T13:50:16;9.60;;;1.48;;
52208;SDS011;38507;53.132;6.394;2023-12-20T13:52:41;11.13;;;1.52;;
52208;SDS011;38507;53.132;6.394;2023-12-20T13:55:07;13.60;;;1.50;;
52208;SDS011;38507;53.132;6.394;2023-12-20T13:57:34;12.38;;;1.40;;
52208;SDS011;38507;53.132;6.394;2023-12-20T14:00:03;11.02;;;1.60;;
52208;SDS011;38507;53.132;6.394;2023-12-20T14:02:30;13.52;;;2.25;;
52208;SDS011;38507;53.132;6.394;2023-12-20T14:04:55;14.07;;;1.88;;
52208;SDS011;38507;53.132;6.394;2023-12-20T14:07:21;12.90;;;1.50;;
52208;SDS011;38507;53.132;6.394;2023-12-20T14:09:46;6.40;;;1.08;;
52208;SDS011;38507;53.132;6.394;2023-12-20T14:12:13;6.65;;;1.20;;
52208;SDS011;38507;53.132;6.394;2023-12-20T14:14:38;8.68;;;1.30;;
52208;SDS011;38507;53.132;6.394;2023-12-20T14:17:04;9.25;;;1.15;;
52208;SDS011;38507;53.132;6.394;2023-12-20T14:19:32;7.47;;;1.42;;
52208;SDS011;38507;53.132;6.394;2023-12-20T14:21:58;8.50;;;1.38;;
52208;SDS011;38507;53.132;6.394;2023-12-20T14:24:26;7.30;;;1.20;;
52208;SDS011;38507;53.132;6.394;2023-12-20T14:26:52;8.88;;;1.33;;
52208;SDS011;38507;53.132;6.394;2023-12-20T14:29:18;9.63;;;1.40;;
52208;SDS011;38507;53.132;6.394;2023-12-20T14:31:44;7.68;;;1.52;;
52208;SDS011;38507;53.132;6.394;2023-12-20T14:34:10;10.18;;;1.58;;
52208;SDS011;38507;53.132;6.394;2023-12-20T14:36:35;10.75;;;1.60;;
52208;SDS011;38507;53.132;6.394;2023-12-20T14:39:02;13.18;;;1.63;;
52208;SDS011;38507;53.132;6.394;2023-12-20T14:41:29;13.15;;;1.70;;